createdAt,value
2022-08-07T00:00:25.453Z,21.80
2022-08-07T00:02:53.927Z,21.90
2022-08-07T00:05:23.600Z,21.90
2022-08-07T00:08:00.247Z,21.60
2022-08-07T00:10:31.953Z,21.40
2022-08-07T00:13:23.946Z,21.10
2022-08-07T00:15:51.507Z,21.10
2022-08-07T00:18:24.357Z,21.20
2022-08-07T00:20:53.837Z,21.30
2022-08-07T00:23:22.380Z,21.20
2022-08-07T00:26:00.156Z,21.50
2022-08-07T00:28:33.541Z,21.60
2022-08-07T00:31:05.701Z,21.70
2022-08-07T00:33:35.500Z,21.60
2022-08-07T00:36:04.589Z,21.30
2022-08-07T00:38:33.305Z,21.00
2022-08-07T00:41:03.223Z,20.90
2022-08-07T00:44:01.685Z,20.80
2022-08-07T00:46:19.989Z,20.80
2022-08-07T00:48:51.825Z,21.10
2022-08-07T00:51:20.669Z,21.40
2022-08-07T00:53:54.974Z,21.40
2022-08-07T00:56:30.370Z,21.30
2022-08-07T00:59:02.120Z,21.20
2022-08-07T01:01:41.530Z,21.20
2022-08-07T01:04:12.396Z,21.10
2022-08-07T01:06:52.880Z,21.00
2022-08-07T01:10:02.365Z,21.10
2022-08-07T01:12:29.914Z,21.10
2022-08-07T01:15:00.981Z,21.20
2022-08-07T01:17:30.400Z,21.10
2022-08-07T01:20:05.809Z,20.90
2022-08-07T01:22:36.720Z,20.80
2022-08-07T01:25:54.498Z,20.70
2022-08-07T01:27:56.170Z,20.60
2022-08-07T01:30:27.125Z,20.60
2022-08-07T01:32:55.423Z,20.30
2022-08-07T01:35:24.345Z,20.20
2022-08-07T01:37:54.251Z,20.10
2022-08-07T01:40:24.020Z,20.30
2022-08-07T01:42:57.582Z,20.30
2022-08-07T01:45:36.923Z,20.30
2022-08-07T01:48:18.891Z,20.20
2022-08-07T01:50:55.656Z,20.00
2022-08-07T01:54:11.771Z,19.80
2022-08-07T01:56:18.988Z,19.80
2022-08-07T01:58:53.462Z,20.00
2022-08-07T02:01:59.688Z,20.10
2022-08-07T02:04:28.012Z,20.00
2022-08-07T02:07:00.381Z,19.80
2022-08-07T02:09:43.604Z,19.80
2022-08-07T02:12:29.371Z,19.80
2022-08-07T02:15:01.264Z,19.90
2022-08-07T02:17:34.755Z,20.10
2022-08-07T02:20:09.995Z,20.30
2022-08-07T02:22:47.273Z,20.50
2022-08-07T02:26:10.822Z,20.50
2022-08-07T02:28:24.673Z,20.40
2022-08-07T02:30:56.001Z,20.30
2022-08-07T02:33:32.797Z,20.10
2022-08-07T02:36:28.415Z,20.00
2022-08-07T02:39:01.371Z,19.90
2022-08-07T02:41:33.521Z,19.80
2022-08-07T02:44:06.362Z,19.80
2022-08-07T02:46:36.842Z,20.00
2022-08-07T02:49:05.426Z,20.20
2022-08-07T02:51:49.758Z,20.30
2022-08-07T02:54:22.187Z,20.20
2022-08-07T02:56:55.937Z,20.20
2022-08-07T02:59:27.661Z,20.10
2022-08-07T03:01:56.574Z,20.00
2022-08-07T03:04:30.734Z,19.80
2022-08-07T03:07:07.066Z,19.50
2022-08-07T03:09:43.541Z,19.20
2022-08-07T03:12:21.750Z,19.00
2022-08-07T03:14:52.144Z,19.10
2022-08-07T03:17:22.212Z,19.10
2022-08-07T03:19:54.492Z,19.00
2022-08-07T03:22:29.635Z,19.00
2022-08-07T03:24:59.870Z,18.90
2022-08-07T03:27:58.758Z,18.90
2022-08-07T03:30:18.703Z,18.90
2022-08-07T03:32:58.301Z,19.00
2022-08-07T03:35:43.625Z,19.10
2022-08-07T03:38:21.017Z,19.00
2022-08-07T03:40:57.189Z,19.10
2022-08-07T03:43:26.964Z,19.10
2022-08-07T03:46:02.885Z,19.20
2022-08-07T03:48:32.894Z,19.30
2022-08-07T03:51:01.624Z,19.10
2022-08-07T03:54:00.812Z,19.10
2022-08-07T03:56:33.181Z,19.00
2022-08-07T03:59:09.977Z,18.60
2022-08-07T04:01:45.262Z,18.40
2022-08-07T04:04:17.920Z,18.10
2022-08-07T04:06:46.807Z,17.90
2022-08-07T04:09:23.043Z,17.60
2022-08-07T04:12:23.806Z,17.40
2022-08-07T04:14:46.253Z,17.60
2022-08-07T04:17:21.515Z,18.00
2022-08-07T04:19:54.691Z,18.40
2022-08-07T04:22:28.494Z,18.40
2022-08-07T04:25:00.853Z,18.40
2022-08-07T04:27:35.659Z,18.30
2022-08-07T04:30:11.728Z,17.80
2022-08-07T04:32:44.657Z,17.60
2022-08-07T04:35:13.976Z,17.40
2022-08-07T04:38:03.135Z,17.20
2022-08-07T04:40:32.376Z,17.20
2022-08-07T04:43:02.085Z,17.40
2022-08-07T04:45:57.447Z,17.80
2022-08-07T04:48:36.620Z,17.90
2022-08-07T04:51:09.508Z,17.80
2022-08-07T04:54:05.279Z,17.70
2022-08-07T04:58:15.140Z,17.50
2022-08-07T05:00:11.170Z,17.60
2022-08-07T05:02:29.054Z,17.50
2022-08-07T05:05:12.026Z,17.60
2022-08-07T05:07:58.008Z,17.80
2022-08-07T05:10:34.183Z,18.10
2022-08-07T05:14:44.730Z,18.30
2022-08-07T05:15:59.041Z,18.50
2022-08-07T05:18:30.712Z,18.70
2022-08-07T05:21:03.996Z,18.90
2022-08-07T05:23:37.667Z,19.20
2022-08-07T05:26:13.419Z,19.30
2022-08-07T05:28:50.301Z,19.40
2022-08-07T05:31:23.157Z,19.60
2022-08-07T05:34:01.076Z,19.70
2022-08-07T05:36:35.384Z,19.80
2022-08-07T05:40:04.964Z,19.90
2022-08-07T05:42:01.736Z,20.10
2022-08-07T05:44:34.633Z,20.20
2022-08-07T05:47:17.902Z,20.50
2022-08-07T05:49:55.395Z,20.80
2022-08-07T05:52:32.392Z,21.00
2022-08-07T05:55:10.219Z,21.00
2022-08-07T05:57:41.934Z,20.80
2022-08-07T06:00:16.374Z,20.60
2022-08-07T06:02:48.732Z,20.50
2022-08-07T06:05:20.330Z,20.40
2022-08-07T06:08:14.612Z,20.40
2022-08-07T06:10:45.675Z,20.40
2022-08-07T06:13:15.540Z,20.50
2022-08-07T06:15:45.437Z,20.50
2022-08-07T06:18:14.435Z,20.60
2022-08-07T06:20:50.276Z,20.60
2022-08-07T06:24:37.079Z,20.70
2022-08-07T06:26:27.255Z,20.90
2022-08-07T06:28:59.035Z,21.00
2022-08-07T06:31:46.495Z,20.90
2022-08-07T06:34:15.480Z,20.90
2022-08-07T06:36:52.054Z,21.00
2022-08-07T06:40:16.543Z,21.10
2022-08-07T06:42:12.463Z,21.20
2022-08-07T06:44:43.097Z,21.20
2022-08-07T06:47:15.239Z,21.30
2022-08-07T06:49:51.229Z,21.10
2022-08-07T06:52:31.717Z,21.20
2022-08-07T06:55:34.451Z,21.30
2022-08-07T06:57:59.227Z,21.40
2022-08-07T07:00:29.215Z,21.40
2022-08-07T07:03:00.825Z,21.50
2022-08-07T07:06:04.435Z,21.30
2022-08-07T07:08:33.278Z,21.40
2022-08-07T07:11:13.133Z,21.50
2022-08-07T07:13:58.424Z,21.50
2022-08-07T07:16:34.263Z,21.60
2022-08-07T07:19:55.852Z,21.70
2022-08-07T07:22:12.175Z,21.80
2022-08-07T07:24:56.748Z,21.70
2022-08-07T07:27:35.719Z,21.50
2022-08-07T07:30:32.618Z,21.40
2022-08-07T07:33:07.767Z,21.20
2022-08-07T07:35:44.079Z,21.30
2022-08-07T07:38:25.971Z,21.50
2022-08-07T07:41:02.186Z,21.60
2022-08-07T07:44:13.903Z,21.50
2022-08-07T07:46:40.066Z,21.30
2022-08-07T07:50:35.219Z,21.50
2022-08-07T07:52:05.763Z,21.70
2022-08-07T07:54:36.000Z,21.70
2022-08-07T07:57:07.775Z,21.70
2022-08-07T07:59:52.911Z,21.70
2022-08-07T08:02:35.481Z,21.70
2022-08-07T08:05:11.494Z,21.80
2022-08-07T08:07:59.882Z,21.80
2022-08-07T08:10:38.130Z,21.90
2022-08-07T08:13:15.172Z,21.80
2022-08-07T08:15:57.672Z,22.00
2022-08-07T08:18:37.534Z,22.10
2022-08-07T08:22:00.697Z,22.30
2022-08-07T08:24:45.730Z,22.40
2022-08-07T08:27:16.711Z,22.60
2022-08-07T08:29:55.479Z,22.60
2022-08-07T08:32:38.641Z,22.60
2022-08-07T08:35:10.638Z,22.70
2022-08-07T08:38:01.094Z,22.80
2022-08-07T08:40:31.632Z,22.80
2022-08-07T08:43:04.579Z,22.80
2022-08-07T08:45:59.271Z,22.90
2022-08-07T08:48:36.554Z,23.00
2022-08-07T08:51:14.305Z,22.70
2022-08-07T08:53:48.647Z,22.70
2022-08-07T08:56:28.149Z,22.60
2022-08-07T08:59:06.668Z,22.60
2022-08-07T09:01:49.166Z,22.70
2022-08-07T09:04:25.679Z,22.90
2022-08-07T09:07:03.369Z,22.90
2022-08-07T09:09:49.056Z,22.90
2022-08-07T09:12:53.258Z,22.80
2022-08-07T09:16:23.408Z,22.70
2022-08-07T09:18:42.330Z,22.60
2022-08-07T09:22:09.682Z,22.70
2022-08-07T09:24:59.748Z,22.70
2022-08-07T09:27:54.560Z,22.80
2022-08-07T09:30:28.248Z,23.10
2022-08-07T09:33:16.753Z,22.80
2022-08-07T09:36:06.327Z,22.80
2022-08-07T09:38:53.608Z,22.80
2022-08-07T09:41:36.232Z,23.10
2022-08-07T09:44:32.975Z,22.90
2022-08-07T09:47:49.843Z,22.70
2022-08-07T09:50:18.657Z,22.70
2022-08-07T09:52:56.683Z,22.60
2022-08-07T09:56:04.678Z,22.60
2022-08-07T09:59:07.787Z,22.40
2022-08-07T10:01:59.054Z,22.40
2022-08-07T10:04:45.882Z,22.30
2022-08-07T10:07:39.751Z,22.40
2022-08-07T10:11:16.851Z,22.60
2022-08-07T10:14:00.053Z,22.50
2022-08-07T10:17:14.253Z,22.50
2022-08-07T10:20:04.963Z,22.40
2022-08-07T10:22:51.754Z,22.40
2022-08-07T10:25:42.262Z,22.90
2022-08-07T10:28:31.803Z,23.10
2022-08-07T10:31:17.697Z,23.20
2022-08-07T10:34:05.625Z,23.10
2022-08-07T10:36:58.320Z,22.90
2022-08-07T10:40:03.059Z,23.20
2022-08-07T10:42:37.952Z,23.00
2022-08-07T10:45:19.357Z,23.00
2022-08-07T10:48:20.432Z,23.40
2022-08-07T10:50:53.147Z,23.70
2022-08-07T10:53:44.230Z,23.80
2022-08-07T10:56:31.358Z,23.60
2022-08-07T10:59:15.590Z,23.40
2022-08-07T11:02:05.045Z,23.30
2022-08-07T11:04:57.462Z,23.20
2022-08-07T11:07:59.128Z,23.20
2022-08-07T11:10:41.682Z,23.00
2022-08-07T11:14:43.772Z,23.40
2022-08-07T11:16:09.979Z,23.50
2022-08-07T11:18:51.081Z,23.50
2022-08-07T11:21:31.868Z,23.50
2022-08-07T11:24:08.509Z,23.70
2022-08-07T11:26:48.274Z,24.30
2022-08-07T11:29:40.871Z,24.40
2022-08-07T11:32:25.720Z,24.50
2022-08-07T11:34:59.560Z,24.50
2022-08-07T11:38:10.237Z,24.70
2022-08-07T11:40:49.622Z,24.80
2022-08-07T11:43:41.752Z,24.90
2022-08-07T11:46:29.238Z,24.60
2022-08-07T11:49:51.104Z,24.30
2022-08-07T11:52:29.037Z,24.00
2022-08-07T11:55:12.892Z,23.70
2022-08-07T11:58:00.770Z,23.70
2022-08-07T12:00:39.329Z,23.80
2022-08-07T12:03:41.440Z,23.80
2022-08-07T12:06:38.955Z,23.80
2022-08-07T12:09:16.672Z,24.00
2022-08-07T12:12:10.610Z,24.40
2022-08-07T12:14:53.887Z,24.80
2022-08-07T12:17:37.075Z,24.60
2022-08-07T12:20:20.859Z,24.20
2022-08-07T12:24:05.799Z,24.20
2022-08-07T12:26:29.905Z,24.20
2022-08-07T12:29:06.977Z,24.00
2022-08-07T12:31:52.745Z,24.00
2022-08-07T12:34:31.053Z,24.20
2022-08-07T12:37:01.683Z,24.40
2022-08-07T12:39:43.305Z,24.60
2022-08-07T12:42:27.989Z,24.70
2022-08-07T12:44:59.743Z,24.60
2022-08-07T12:47:39.828Z,24.90
2022-08-07T12:50:34.258Z,24.90
2022-08-07T12:53:17.697Z,24.60
2022-08-07T12:56:01.945Z,24.60
2022-08-07T12:58:39.636Z,24.80
2022-08-07T13:01:18.240Z,25.40
2022-08-07T13:04:09.761Z,25.30
2022-08-07T13:07:07.375Z,25.10
2022-08-07T13:10:19.441Z,25.10
2022-08-07T13:12:58.000Z,25.30
2022-08-07T13:15:38.131Z,25.80
2022-08-07T13:18:26.707Z,25.40
2022-08-07T13:21:06.080Z,25.10
2022-08-07T13:24:00.737Z,24.80
2022-08-07T13:26:36.532Z,24.70
2022-08-07T13:29:12.867Z,25.00
2022-08-07T13:31:54.893Z,25.00
2022-08-07T13:34:36.528Z,24.70
2022-08-07T13:37:20.030Z,24.70
2022-08-07T13:40:35.996Z,25.30
2022-08-07T13:42:47.172Z,25.20
2022-08-07T13:46:12.455Z,25.40
2022-08-07T13:48:27.893Z,25.00
2022-08-07T13:51:02.064Z,24.80
2022-08-07T13:54:00.874Z,24.70
2022-08-07T13:56:35.698Z,24.70
2022-08-07T13:59:12.670Z,24.90
2022-08-07T14:01:55.525Z,25.10
2022-08-07T14:04:49.592Z,25.10
2022-08-07T14:07:22.949Z,24.90
2022-08-07T14:10:01.210Z,24.80
2022-08-07T14:12:54.547Z,24.70
2022-08-07T14:15:31.939Z,24.90
2022-08-07T14:18:23.733Z,25.60
2022-08-07T14:21:07.922Z,25.80
2022-08-07T14:24:00.696Z,26.10
2022-08-07T14:26:35.877Z,26.00
2022-08-07T14:30:03.066Z,25.30
2022-08-07T14:31:57.884Z,25.00
2022-08-07T14:34:30.721Z,25.00
2022-08-07T14:37:03.249Z,25.00
2022-08-07T14:40:16.272Z,25.70
2022-08-07T14:42:32.534Z,25.70
2022-08-07T14:50:48.108Z,25.00
2022-08-07T14:54:06.596Z,24.90
2022-08-07T14:56:13.172Z,24.80
2022-08-07T14:58:44.372Z,24.70
2022-08-07T15:04:06.299Z,25.10
2022-08-07T15:06:39.011Z,25.00
2022-08-07T15:12:07.346Z,24.70
2022-08-07T15:14:55.956Z,24.60
2022-08-07T15:17:32.636Z,24.80
2022-08-07T15:20:32.797Z,24.80
2022-08-07T15:25:57.528Z,24.70
2022-08-07T15:28:34.473Z,24.60
2022-08-07T15:31:12.189Z,24.60
2022-08-07T15:33:43.059Z,24.60
2022-08-07T15:36:11.881Z,24.70
2022-08-07T15:38:51.941Z,24.80
2022-08-07T15:42:45.203Z,25.00
2022-08-07T15:44:24.036Z,25.10
2022-08-07T15:46:58.226Z,25.10
2022-08-07T15:50:06.035Z,25.00
2022-08-07T15:52:30.490Z,25.20
2022-08-07T15:55:02.750Z,25.30
2022-08-07T15:57:39.762Z,25.30
2022-08-07T16:00:31.563Z,25.50
2022-08-07T16:03:05.566Z,25.20
2022-08-07T16:05:34.644Z,25.00
2022-08-07T16:08:30.742Z,24.70
2022-08-07T16:11:02.551Z,24.90
2022-08-07T16:14:06.592Z,25.10
2022-08-07T16:16:51.129Z,25.20
2022-08-07T16:19:41.868Z,25.40
2022-08-07T16:22:55.269Z,25.70
2022-08-07T16:25:55.272Z,25.40
2022-08-07T16:30:06.768Z,25.20
2022-08-07T16:32:00.714Z,25.10
2022-08-07T16:34:48.080Z,24.50
2022-08-07T16:38:04.079Z,24.30
2022-08-07T16:40:56.921Z,24.40
2022-08-07T16:44:03.908Z,24.50
2022-08-07T16:47:17.878Z,24.30
2022-08-07T16:50:36.261Z,24.20
2022-08-07T16:53:48.086Z,24.60
2022-08-07T16:56:19.876Z,25.10
2022-08-07T16:59:14.450Z,25.40
2022-08-07T17:02:00.273Z,25.10
2022-08-07T17:04:57.989Z,24.90
2022-08-07T17:07:52.025Z,24.60
2022-08-07T17:10:32.473Z,24.50
2022-08-07T17:13:25.351Z,24.30
2022-08-07T17:16:15.392Z,24.20
2022-08-07T17:19:00.475Z,24.20
2022-08-07T17:21:50.758Z,24.10
2022-08-07T17:24:32.612Z,24.20
2022-08-07T17:27:08.178Z,24.40
2022-08-07T17:30:14.176Z,24.50
2022-08-07T17:33:02.137Z,24.50
2022-08-07T17:35:55.378Z,24.40
2022-08-07T17:38:34.240Z,24.40
2022-08-07T17:41:12.325Z,24.50
2022-08-07T17:44:10.466Z,24.60
2022-08-07T17:46:52.171Z,24.70
2022-08-07T17:49:24.397Z,24.80
2022-08-07T17:52:00.352Z,24.80
2022-08-07T17:54:39.544Z,24.80
2022-08-07T17:57:25.524Z,25.10
2022-08-07T18:00:33.136Z,25.40
2022-08-07T18:03:18.238Z,25.30
2022-08-07T18:06:01.416Z,25.30
2022-08-07T18:08:54.250Z,25.40
2022-08-07T18:12:17.439Z,25.60
2022-08-07T18:14:28.251Z,25.60
2022-08-07T18:17:00.322Z,25.50
2022-08-07T18:21:11.034Z,25.80
2022-08-07T18:22:36.341Z,25.90
2022-08-07T18:25:23.956Z,26.00
2022-08-07T18:28:36.016Z,26.10
2022-08-07T18:31:07.530Z,26.20
2022-08-07T18:33:55.424Z,26.30
2022-08-07T18:36:38.375Z,26.30
2022-08-07T18:40:05.487Z,26.30
2022-08-07T18:42:18.625Z,26.50
2022-08-07T18:45:39.741Z,26.60
2022-08-07T18:48:01.582Z,26.50
2022-08-07T18:50:48.675Z,26.60
2022-08-07T18:53:36.622Z,26.80
2022-08-07T18:56:15.166Z,26.80
2022-08-07T18:59:00.642Z,27.00
2022-08-07T19:02:19.301Z,27.10
2022-08-07T19:04:53.355Z,27.20
2022-08-07T19:07:35.162Z,27.10
2022-08-07T19:10:12.131Z,27.20
2022-08-07T19:12:59.126Z,27.30
2022-08-07T19:16:05.381Z,27.30
2022-08-07T19:18:46.366Z,27.40
2022-08-07T19:21:44.287Z,27.50
2022-08-07T19:24:30.487Z,27.60
2022-08-07T19:28:57.147Z,27.50
2022-08-07T19:31:00.217Z,27.50
2022-08-07T19:32:47.470Z,27.50
2022-08-07T19:35:22.666Z,27.40
2022-08-07T19:37:57.947Z,27.40
2022-08-07T19:40:31.135Z,27.40
2022-08-07T19:43:09.210Z,27.50
2022-08-07T19:46:08.216Z,27.60
2022-08-07T19:48:42.230Z,27.60
2022-08-07T19:51:19.993Z,27.60
2022-08-07T19:54:34.120Z,27.60
2022-08-07T19:57:51.232Z,27.70
2022-08-07T19:59:39.945Z,27.70
2022-08-07T20:02:19.600Z,27.60
2022-08-07T20:04:57.850Z,27.50
2022-08-07T20:07:47.122Z,27.40
2022-08-07T20:10:36.539Z,27.20
2022-08-07T20:13:22.386Z,27.30
2022-08-07T20:15:53.955Z,27.30
2022-08-07T20:18:32.697Z,27.30
2022-08-07T20:21:14.895Z,27.30
2022-08-07T20:23:54.242Z,27.30
2022-08-07T20:26:32.804Z,27.30
2022-08-07T20:29:16.963Z,27.30
2022-08-07T20:32:02.314Z,27.30
2022-08-07T20:34:49.327Z,27.30
2022-08-07T20:37:26.158Z,27.30
2022-08-07T20:40:04.316Z,27.30
2022-08-07T20:42:35.318Z,27.30
2022-08-07T20:45:32.999Z,27.20
2022-08-07T20:47:58.331Z,27.20
2022-08-07T20:50:29.074Z,27.10
2022-08-07T20:53:00.388Z,27.20
2022-08-07T20:55:32.041Z,27.10
2022-08-07T20:58:11.847Z,27.10
2022-08-07T21:00:53.073Z,27.10
2022-08-07T21:03:25.768Z,27.00
2022-08-07T21:06:00.732Z,27.00
2022-08-07T21:08:37.082Z,27.00
2022-08-07T21:11:12.398Z,26.90
2022-08-07T21:14:16.944Z,26.80
2022-08-07T21:16:55.896Z,26.60
2022-08-07T21:19:32.058Z,26.60
2022-08-07T21:22:19.332Z,26.50
2022-08-07T21:25:12.178Z,26.50
2022-08-07T21:28:01.894Z,26.50
2022-08-07T21:30:38.617Z,26.50
2022-08-07T21:33:16.168Z,26.60
2022-08-07T21:36:05.718Z,26.70
2022-08-07T21:38:49.986Z,26.60
2022-08-07T21:41:27.877Z,26.50
2022-08-07T21:44:14.315Z,26.50
2022-08-07T21:47:00.802Z,26.30
2022-08-07T21:49:40.747Z,26.20
2022-08-07T21:52:35.147Z,26.10
2022-08-07T21:55:10.891Z,26.20
2022-08-07T21:57:52.834Z,26.10
2022-08-07T22:00:25.202Z,26.30
2022-08-07T22:03:07.397Z,26.30
2022-08-07T22:05:50.036Z,26.30
2022-08-07T22:08:23.230Z,26.20
2022-08-07T22:10:58.863Z,26.20
2022-08-07T22:13:50.272Z,26.10
2022-08-07T22:16:39.713Z,26.00
2022-08-07T22:19:27.096Z,25.90
2022-08-07T22:22:17.645Z,25.80
2022-08-07T22:25:03.195Z,25.80
2022-08-07T22:28:08.136Z,25.80
2022-08-07T22:30:32.888Z,25.80
2022-08-07T22:33:05.641Z,25.80
2022-08-07T22:35:41.307Z,25.80
2022-08-07T22:38:24.076Z,25.80
2022-08-07T22:40:59.940Z,25.80
2022-08-07T22:43:37.092Z,25.60
2022-08-07T22:47:01.915Z,25.40
2022-08-07T22:49:54.898Z,25.40
2022-08-07T22:52:56.776Z,25.40
2022-08-07T22:55:47.431Z,25.50
2022-08-07T22:58:43.003Z,25.50
2022-08-07T23:01:54.421Z,25.30
2022-08-07T23:04:57.674Z,25.30
2022-08-07T23:07:45.083Z,25.30
2022-08-07T23:10:38.101Z,25.30
2022-08-07T23:13:48.500Z,25.30
2022-08-07T23:16:48.311Z,25.30
2022-08-07T23:19:59.877Z,25.40
2022-08-07T23:22:43.114Z,25.40
2022-08-07T23:25:24.282Z,25.50
2022-08-07T23:28:28.470Z,25.30
2022-08-07T23:31:13.907Z,25.00
2022-08-07T23:34:22.513Z,24.80
2022-08-07T23:37:22.397Z,24.80
2022-08-07T23:40:07.561Z,24.70
2022-08-07T23:42:56.078Z,24.70
2022-08-07T23:46:02.481Z,24.70
2022-08-07T23:48:44.525Z,24.50
2022-08-07T23:53:00.785Z,24.60
2022-08-07T23:54:36.336Z,24.70
2022-08-07T23:57:20.711Z,24.80
